Time;durP1;ratioP1;P1;durP2;ratioP2;P2;SDS_P1;SDS_P2;PMS_P1;PMS_P2;Temp;Humidity;BMP_temperature;BMP_pressure;BME280_temperature;BME280_humidity;BME280_pressure;Samples;Min_cycle;Max_cycle;Signal;HPM_P1;HPM_P2
2023/08/18 00:02:22;;;;;;;13.50;8.90;;;18.60;99.90;;;;;;5034169;28;20430;-72
2023/08/18 00:04:48;;;;;;;14.23;9.90;;;18.60;99.90;;;;;;5034233;28;20606;-72
2023/08/18 00:07:15;;;;;;;12.33;10.40;;;18.50;99.90;;;;;;5033998;28;20454;-73
2023/08/18 00:09:43;;;;;;;10.23;8.80;;;18.50;99.90;;;;;;5034066;28;20274;-73
2023/08/18 00:12:09;;;;;;;14.10;9.20;;;18.50;99.90;;;;;;5034077;28;20422;-72
2023/08/18 00:14:34;;;;;;;15.57;10.50;;;18.50;99.90;;;;;;5034029;28;20402;-72
2023/08/18 00:17:00;;;;;;;13.00;10.50;;;18.40;99.90;;;;;;5033795;28;20168;-72
2023/08/18 00:19:25;;;;;;;20.63;10.70;;;18.40;99.90;;;;;;5033554;28;20206;-72
2023/08/18 00:21:51;;;;;;;11.67;10.43;;;18.40;99.90;;;;;;5047987;28;20286;-72
2023/08/18 00:24:16;;;;;;;15.73;10.60;;;18.40;99.90;;;;;;5053730;28;20652;-72
2023/08/18 00:26:42;;;;;;;14.53;10.30;;;18.40;99.90;;;;;;5046818;28;20179;-73
2023/08/18 00:29:08;;;;;;;12.70;9.93;;;18.40;99.90;;;;;;5053270;28;20676;-73
2023/08/18 00:31:33;;;;;;;16.13;11.33;;;18.40;99.90;;;;;;5051802;28;20213;-72
2023/08/18 00:33:59;;;;;;;16.90;11.90;;;18.40;99.90;;;;;;5053402;28;20163;-72
2023/08/18 00:36:25;;;;;;;14.73;9.87;;;18.30;99.90;;;;;;5053261;28;20203;-72
2023/08/18 00:38:51;;;;;;;15.80;11.27;;;18.30;99.90;;;;;;5053461;28;20645;-73
2023/08/18 00:41:17;;;;;;;13.97;10.97;;;18.30;99.90;;;;;;5053174;28;20425;-73
2023/08/18 00:43:42;;;;;;;16.70;12.20;;;18.30;99.90;;;;;;5053480;28;20398;-72
2023/08/18 00:46:09;;;;;;;21.73;11.77;;;18.30;99.90;;;;;;5033120;28;20411;-72
2023/08/18 00:48:38;;;;;;;13.37;10.43;;;18.30;99.90;;;;;;5032146;28;20198;-72
2023/08/18 00:51:05;;;;;;;13.50;10.90;;;18.30;99.90;;;;;;5033274;28;20434;-72
2023/08/18 00:53:31;;;;;;;20.43;12.27;;;18.30;99.90;;;;;;5033320;28;20391;-72
2023/08/18 00:55:57;;;;;;;17.00;10.80;;;18.20;99.90;;;;;;5032979;28;20460;-72
2023/08/18 00:58:23;;;;;;;16.83;13.17;;;18.20;99.90;;;;;;5033388;28;20414;-72
2023/08/18 01:00:49;;;;;;;18.27;11.90;;;18.20;99.90;;;;;;5033063;28;20536;-72
2023/08/18 01:03:15;;;;;;;13.40;11.13;;;18.20;99.90;;;;;;5031962;28;20418;-72
2023/08/18 01:05:41;;;;;;;15.80;11.83;;;18.20;99.90;;;;;;5032820;28;20418;-72
2023/08/18 01:08:07;;;;;;;16.63;12.43;;;18.20;99.90;;;;;;5032956;28;20448;-72
2023/08/18 01:10:42;;;;;;;13.77;10.60;;;18.20;99.90;;;;;;5032959;28;20695;-72
2023/08/18 01:13:10;;;;;;;21.10;12.10;;;18.20;99.90;;;;;;5032150;28;20186;-72
2023/08/18 01:15:40;;;;;;;17.30;12.00;;;18.20;99.90;;;;;;5037356;28;20951;-72
2023/08/18 01:18:06;;;;;;;17.37;11.80;;;18.20;99.90;;;;;;5050865;28;20405;-72
2023/08/18 01:20:32;;;;;;;23.20;14.57;;;18.20;99.90;;;;;;5052783;28;20513;-72
2023/08/18 01:28:32;;;;;;;17.17;13.50;;;18.10;99.90;;;;;;5039874;28;20985;-72
2023/08/18 01:30:59;;;;;;;14.67;11.33;;;18.10;99.90;;;;;;5047372;28;20505;-73
2023/08/18 01:33:48;;;;;;;19.93;14.10;;;18.10;99.90;;;;;;5052304;28;20926;-72
2023/08/18 01:36:20;;;;;;;20.93;12.60;;;18.10;99.90;;;;;;5051912;28;20929;-72
2023/08/18 01:38:48;;;;;;;23.70;14.83;;;18.10;99.90;;;;;;5052210;28;20535;-72
2023/08/18 01:41:18;;;;;;;18.53;14.60;;;18.10;99.90;;;;;;5052578;28;20927;-72
2023/08/18 01:43:43;;;;;;;24.00;15.10;;;18.10;99.90;;;;;;5052481;28;20443;-72
2023/08/18 01:46:09;;;;;;;20.53;14.53;;;18.10;99.90;;;;;;5044535;28;20450;-72
2023/08/18 01:48:34;;;;;;;18.67;13.97;;;18.10;99.90;;;;;;5032319;28;20190;-72
2023/08/18 01:51:00;;;;;;;18.43;13.37;;;18.00;99.90;;;;;;5032300;28;20168;-72
2023/08/18 02:07:05;;;;;;;17.63;13.83;;;18.00;99.90;;;;;;5044234;28;20511;-73
2023/08/18 02:09:31;;;;;;;22.90;15.07;;;18.00;99.90;;;;;;5051907;28;20488;-73
2023/08/18 02:11:56;;;;;;;23.37;14.83;;;18.00;99.90;;;;;;5051773;28;20178;-73
2023/08/18 02:14:22;;;;;;;19.40;14.27;;;18.00;99.90;;;;;;5050624;28;20195;-72
2023/08/18 02:16:48;;;;;;;21.30;14.80;;;18.00;99.90;;;;;;5051629;28;20198;-72
2023/08/18 02:19:13;;;;;;;18.73;13.70;;;18.00;99.90;;;;;;5049285;28;20655;-72
2023/08/18 02:21:39;;;;;;;26.13;15.97;;;18.10;99.90;;;;;;5030624;28;20449;-72
2023/08/18 02:24:05;;;;;;;21.20;14.47;;;18.10;99.90;;;;;;5031876;28;20653;-73
2023/08/18 02:26:30;;;;;;;20.83;14.77;;;18.10;99.90;;;;;;5033957;28;20203;-73
2023/08/18 02:28:56;;;;;;;24.70;15.10;;;18.10;99.90;;;;;;5044432;28;20195;-72
2023/08/18 02:31:21;;;;;;;21.60;15.10;;;18.10;99.90;;;;;;5051660;28;20659;-73
2023/08/18 02:33:47;;;;;;;23.37;15.23;;;18.20;99.90;;;;;;5051681;28;20163;-73
2023/08/18 02:36:13;;;;;;;19.23;13.93;;;18.20;99.90;;;;;;5051445;28;20251;-72
2023/08/18 02:38:38;;;;;;;24.00;14.47;;;18.20;99.90;;;;;;5051621;28;20693;-73
2023/08/18 02:41:04;;;;;;;23.70;15.33;;;18.30;99.90;;;;;;5052830;28;20682;-73
2023/08/18 02:43:30;;;;;;;24.50;14.27;;;18.30;99.90;;;;;;5055627;28;20199;-72
2023/08/18 02:45:57;;;;;;;22.10;15.97;;;18.40;99.90;;;;;;5038250;28;20228;-72
2023/08/18 02:48:27;;;;;;;22.33;14.17;;;18.30;99.90;;;;;;5035562;28;20700;-72
2023/08/18 02:51:13;;;;;;;25.40;13.60;;;18.40;99.90;;;;;;5035182;28;20397;-72
2023/08/18 02:53:38;;;;;;;23.50;15.27;;;18.40;99.90;;;;;;5035334;28;20410;-72
2023/08/18 02:56:04;;;;;;;24.07;14.00;;;18.40;99.90;;;;;;5035158;28;20540;-73
2023/08/18 02:58:31;;;;;;;22.30;13.97;;;18.40;99.90;;;;;;5035458;28;20286;-72
2023/08/18 03:01:05;;;;;;;18.23;14.70;;;18.50;99.90;;;;;;5035440;28;20174;-73
2023/08/18 03:03:30;;;;;;;18.57;14.37;;;18.50;99.90;;;;;;5035343;28;20402;-72
2023/08/18 03:06:03;;;;;;;18.23;13.70;;;18.50;99.90;;;;;;5035118;28;20413;-73
2023/08/18 03:08:29;;;;;;;20.60;14.87;;;18.50;99.90;;;;;;5035068;28;20191;-72
2023/08/18 03:10:59;;;;;;;20.50;14.80;;;18.50;99.90;;;;;;5035240;28;20402;-72
2023/08/18 03:13:25;;;;;;;23.07;15.67;;;18.50;99.90;;;;;;5035561;28;20625;-72
2023/08/18 03:15:51;;;;;;;21.17;13.90;;;18.50;99.90;;;;;;5033639;28;20409;-72
2023/08/18 03:18:16;;;;;;;19.70;14.73;;;18.50;99.90;;;;;;5035321;28;20171;-73
2023/08/18 03:20:43;;;;;;;21.13;14.70;;;18.50;99.90;;;;;;5037711;28;20171;-73
2023/08/18 03:23:10;;;;;;;19.60;15.03;;;18.50;99.90;;;;;;5054897;28;20159;-72
2023/08/18 03:25:36;;;;;;;21.60;12.93;;;18.50;99.90;;;;;;5051186;28;20413;-73
2023/08/18 03:28:01;;;;;;;19.97;13.30;;;18.50;99.90;;;;;;5046078;28;20786;-73
2023/08/18 03:30:27;;;;;;;25.67;17.30;;;18.50;99.90;;;;;;5049102;28;20159;-73
2023/08/18 03:32:55;;;;;;;22.60;15.60;;;18.50;99.90;;;;;;5054378;28;20829;-73
2023/08/18 03:35:21;;;;;;;24.87;15.57;;;18.50;99.90;;;;;;5054277;28;20159;-73
2023/08/18 03:37:46;;;;;;;19.80;14.73;;;18.50;99.90;;;;;;5054536;28;20435;-73
2023/08/18 03:40:12;;;;;;;18.80;13.97;;;18.50;99.90;;;;;;5054566;28;20581;-72
2023/08/18 03:42:37;;;;;;;17.80;13.27;;;18.50;99.90;;;;;;5054555;28;20186;-73
2023/08/18 03:45:04;;;;;;;18.33;13.70;;;18.50;99.90;;;;;;5044923;28;20462;-72
2023/08/18 03:47:30;;;;;;;22.00;14.10;;;18.50;99.90;;;;;;5034640;28;20179;-73
2023/08/18 03:49:55;;;;;;;23.33;15.03;;;18.60;99.90;;;;;;5034497;28;20446;-73
2023/08/18 03:52:21;;;;;;;17.10;12.70;;;18.60;99.90;;;;;;5033609;28;20596;-73
2023/08/18 03:54:46;;;;;;;20.03;13.40;;;18.60;99.90;;;;;;5034155;28;20198;-72
2023/08/18 03:57:12;;;;;;;24.37;15.73;;;18.60;99.90;;;;;;5033992;28;20160;-73
2023/08/18 03:59:37;;;;;;;21.20;14.27;;;18.60;99.90;;;;;;5034538;28;20630;-72
2023/08/18 04:02:03;;;;;;;28.17;15.10;;;18.60;99.90;;;;;;5034206;28;20195;-73
2023/08/18 04:04:28;;;;;;;21.27;14.60;;;18.60;99.90;;;;;;5034391;28;20180;-73
2023/08/18 04:06:54;;;;;;;20.67;13.23;;;18.60;99.90;;;;;;5033980;28;20667;-73
2023/08/18 04:09:19;;;;;;;21.10;14.57;;;18.60;99.90;;;;;;5034218;28;20191;-72
2023/08/18 04:11:46;;;;;;;20.70;14.20;;;18.60;99.90;;;;;;5034039;28;20191;-73
2023/08/18 04:14:11;;;;;;;23.10;13.47;;;18.70;99.90;;;;;;5034155;28;20173;-73
2023/08/18 04:16:38;;;;;;;26.20;14.10;;;18.70;99.90;;;;;;5033412;28;20487;-73
2023/08/18 04:19:03;;;;;;;22.83;13.60;;;18.70;99.90;;;;;;5033121;28;20776;-73
2023/08/18 04:21:30;;;;;;;18.03;13.10;;;18.70;99.90;;;;;;5042368;28;20512;-72
2023/08/18 04:23:56;;;;;;;20.70;15.40;;;18.70;99.90;;;;;;5053839;28;20329;-73
2023/08/18 04:26:21;;;;;;;20.30;12.80;;;18.70;99.90;;;;;;5045580;28;20990;-73
2023/08/18 04:28:47;;;;;;;18.37;13.53;;;18.70;99.90;;;;;;5045495;28;20246;-73
2023/08/18 04:31:13;;;;;;;18.20;11.83;;;18.80;99.90;;;;;;5053656;28;20191;-73
2023/08/18 04:33:38;;;;;;;14.97;11.90;;;18.80;99.90;;;;;;5044196;28;20187;-73
2023/08/18 04:36:04;;;;;;;20.83;14.17;;;18.80;99.90;;;;;;5045157;28;20174;-73
2023/08/18 04:38:31;;;;;;;20.83;13.37;;;18.80;99.90;;;;;;5047001;28;20174;-73
2023/08/18 04:41:00;;;;;;;21.13;12.43;;;18.90;99.90;;;;;;5053417;28;20269;-73
2023/08/18 04:43:27;;;;;;;18.73;12.77;;;18.90;99.90;;;;;;5046628;28;20421;-74
2023/08/18 04:45:53;;;;;;;23.40;13.80;;;18.90;99.90;;;;;;5053219;28;20412;-73
2023/08/18 04:48:23;;;;;;;22.87;13.57;;;18.90;99.90;;;;;;5048675;28;20770;-73
2023/08/18 04:50:48;;;;;;;21.33;13.47;;;19.00;99.90;;;;;;5053389;28;20171;-73
2023/08/18 04:53:14;;;;;;;21.80;12.90;;;19.00;99.90;;;;;;5053269;28;20412;-72
2023/08/18 04:55:42;;;;;;;23.00;13.70;;;19.10;99.90;;;;;;5053038;28;20167;-73
2023/08/18 04:58:12;;;;;;;24.20;14.30;;;19.10;99.90;;;;;;5053259;28;20402;-72
2023/08/18 05:00:41;;;;;;;22.97;13.73;;;19.10;99.90;;;;;;5049584;28;20465;-73
2023/08/18 05:03:06;;;;;;;17.10;13.10;;;19.10;99.90;;;;;;5049206;28;20447;-73
2023/08/18 05:05:39;;;;;;;24.13;15.90;;;19.20;99.90;;;;;;5052760;28;20898;-73
2023/08/18 05:08:05;;;;;;;21.10;14.00;;;19.20;99.90;;;;;;5046805;28;20183;-73
2023/08/18 05:10:30;;;;;;;21.00;12.40;;;19.30;99.90;;;;;;5052880;28;20433;-72
2023/08/18 05:12:56;;;;;;;18.80;12.57;;;19.40;99.90;;;;;;5052829;28;20429;-73
2023/08/18 05:15:22;;;;;;;18.73;13.27;;;19.40;99.90;;;;;;5051388;28;20167;-73
2023/08/18 05:17:48;;;;;;;16.80;12.07;;;19.50;99.90;;;;;;5052865;28;20693;-73
2023/08/18 05:20:14;;;;;;;15.30;11.60;;;19.60;99.90;;;;;;5052753;28;20501;-73
2023/08/18 05:22:40;;;;;;;15.90;10.93;;;19.70;99.90;;;;;;5052706;28;20486;-73
2023/08/18 05:25:07;;;;;;;17.00;12.00;;;19.80;99.90;;;;;;5052370;28;20946;-73
2023/08/18 05:27:37;;;;;;;18.37;11.43;;;19.90;99.90;;;;;;5044879;28;20425;-73
2023/08/18 05:30:04;;;;;;;16.60;12.07;;;20.00;99.90;;;;;;5039624;28;20464;-73
2023/08/18 05:32:30;;;;;;;19.40;12.60;;;20.10;99.90;;;;;;5045821;28;20464;-73
2023/08/18 05:34:56;;;;;;;14.80;11.70;;;20.10;99.90;;;;;;5039160;28;20433;-72
2023/08/18 05:37:23;;;;;;;17.23;11.43;;;20.20;99.90;;;;;;5050792;28;20182;-72
2023/08/18 05:39:48;;;;;;;19.90;13.03;;;20.30;99.90;;;;;;5052251;28;20569;-72
2023/08/18 05:42:15;;;;;;;19.33;12.77;;;20.30;99.90;;;;;;5052261;28;20441;-73
2023/08/18 05:44:42;;;;;;;18.13;11.77;;;20.40;99.90;;;;;;5052333;28;20171;-73
2023/08/18 05:47:08;;;;;;;19.60;12.27;;;20.50;99.90;;;;;;5052011;28;20422;-73
2023/08/18 05:49:33;;;;;;;15.43;10.20;;;20.60;99.90;;;;;;5052073;28;20453;-72
2023/08/18 05:51:59;;;;;;;16.60;11.60;;;20.60;99.90;;;;;;5052129;28;20197;-71
2023/08/18 05:54:25;;;;;;;15.20;10.97;;;20.80;99.90;;;;;;5038045;28;20229;-72
2023/08/18 05:56:50;;;;;;;17.77;10.77;;;20.80;99.90;;;;;;5031973;28;20411;-73
2023/08/18 05:59:16;;;;;;;13.90;8.67;;;21.00;99.90;;;;;;5032195;28;20221;-73
2023/08/18 06:01:41;;;;;;;12.70;9.70;;;21.10;99.90;;;;;;5032118;28;20187;-73
2023/08/18 06:04:07;;;;;;;14.90;10.00;;;21.30;99.90;;;;;;5032057;28;20246;-73
2023/08/18 06:06:34;;;;;;;14.80;10.10;;;21.40;99.90;;;;;;5031721;28;20510;-74
2023/08/18 06:09:01;;;;;;;11.00;9.30;;;21.50;99.90;;;;;;5032008;28;20215;-74
2023/08/18 06:11:27;;;;;;;15.50;10.53;;;21.70;99.90;;;;;;5045480;28;20659;-71
2023/08/18 06:13:52;;;;;;;13.13;9.37;;;21.90;99.90;;;;;;5051667;28;20449;-71
2023/08/18 06:16:18;;;;;;;14.33;10.23;;;22.10;99.90;;;;;;5051021;28;20413;-71
2023/08/18 06:18:43;;;;;;;14.63;10.80;;;22.20;99.90;;;;;;5051864;28;20170;-71
2023/08/18 06:21:09;;;;;;;15.37;11.13;;;22.30;99.90;;;;;;5051848;28;20191;-71
2023/08/18 06:23:34;;;;;;;15.03;9.07;;;22.40;99.90;;;;;;5051772;28;20247;-71
2023/08/18 06:26:00;;;;;;;10.43;8.17;;;22.50;99.90;;;;;;5047796;28;20254;-70
2023/08/18 06:28:26;;;;;;;12.50;10.10;;;22.50;99.90;;;;;;5043472;28;20203;-72
2023/08/18 06:30:51;;;;;;;13.00;8.97;;;22.50;99.90;;;;;;5050632;28;20167;-71
2023/08/18 06:33:17;;;;;;;12.70;8.90;;;22.50;99.90;;;;;;5051655;28;20842;-71
2023/08/18 06:35:42;;;;;;;15.87;10.10;;;22.50;99.90;;;;;;5042073;28;20665;-70
2023/08/18 06:38:08;;;;;;;12.57;9.53;;;22.50;99.90;;;;;;5047618;28;20173;-72
2023/08/18 06:40:33;;;;;;;12.60;8.97;;;22.50;99.90;;;;;;5051588;28;20719;-72
2023/08/18 06:42:59;;;;;;;11.40;9.17;;;22.50;99.90;;;;;;5042122;28;20252;-71
2023/08/18 06:45:24;;;;;;;9.90;8.77;;;22.50;99.90;;;;;;5039305;28;20171;-72
2023/08/18 06:47:50;;;;;;;15.10;8.90;;;22.60;99.90;;;;;;5050360;28;20559;-72
2023/08/18 06:50:15;;;;;;;12.43;9.13;;;22.70;99.90;;;;;;5051443;28;20198;-71
2023/08/18 06:52:41;;;;;;;15.70;11.90;;;22.80;99.90;;;;;;5051407;28;20193;-71
2023/08/18 06:55:13;;;;;;;12.90;9.97;;;22.90;99.90;;;;;;5051383;28;20167;-72
2023/08/18 06:57:39;;;;;;;14.30;11.23;;;23.10;99.90;;;;;;5051654;28;20174;-71
2023/08/18 07:00:06;;;;;;;16.87;12.73;;;23.20;99.90;;;;;;5046264;28;20790;-72
2023/08/18 07:02:31;;;;;;;16.27;11.43;;;23.40;99.90;;;;;;5050098;28;20824;-71
2023/08/18 07:04:57;;;;;;;17.10;10.90;;;23.60;99.90;;;;;;5049619;28;20488;-71
2023/08/18 07:07:22;;;;;;;21.60;14.93;;;23.80;99.90;;;;;;5046186;28;20183;-71
2023/08/18 07:09:49;;;;;;;22.27;14.87;;;24.00;99.90;;;;;;5051346;28;20230;-71
2023/08/18 07:12:16;;;;;;;15.90;13.90;;;23.90;99.90;;;;;;5051428;28;20266;-72
2023/08/18 07:14:41;;;;;;;15.13;13.07;;;24.00;99.90;;;;;;5049767;28;20405;-72
2023/08/18 07:17:06;;;;;;;15.60;12.10;;;24.10;99.90;;;;;;5051035;28;20405;-72
2023/08/18 07:19:32;;;;;;;24.20;16.63;;;24.20;99.90;;;;;;5051424;28;20179;-71
2023/08/18 07:21:58;;;;;;;23.30;16.33;;;24.40;99.90;;;;;;5051248;28;20237;-72
2023/08/18 07:24:23;;;;;;;16.10;13.13;;;24.70;99.90;;;;;;5051315;28;20250;-71
2023/08/18 07:26:49;;;;;;;23.87;18.40;;;25.00;99.90;;;;;;5038591;28;20186;-72
2023/08/18 07:29:14;;;;;;;21.27;16.57;;;25.40;99.90;;;;;;5052208;28;20612;-71
2023/08/18 07:31:42;;;;;;;16.47;12.17;;;25.50;99.90;;;;;;5041817;28;20581;-71
2023/08/18 07:34:07;;;;;;;23.37;15.10;;;25.60;99.90;;;;;;5054815;28;20163;-72
2023/08/18 07:36:33;;;;;;;14.00;12.60;;;25.70;99.90;;;;;;5054526;28;20966;-72
2023/08/18 07:38:59;;;;;;;16.50;13.27;;;25.90;99.90;;;;;;5054551;28;20175;-72
2023/08/18 07:41:24;;;;;;;17.03;13.67;;;26.10;99.90;;;;;;5054572;28;20934;-72
2023/08/18 07:43:50;;;;;;;17.17;12.97;;;26.40;99.90;;;;;;5054635;28;20182;-71
2023/08/18 07:46:16;;;;;;;14.93;13.40;;;27.00;99.90;;;;;;5051853;28;20687;-72
2023/08/18 07:48:43;;;;;;;12.97;11.07;;;27.30;99.90;;;;;;5052169;28;20969;-72
2023/08/18 07:51:08;;;;;;;27.03;20.07;;;27.50;99.90;;;;;;5054525;28;20179;-72
2023/08/18 07:53:34;;;;;;;15.70;13.40;;;27.40;99.90;;;;;;5054510;28;20398;-72
2023/08/18 07:56:00;;;;;;;18.20;15.10;;;27.80;99.90;;;;;;5054364;28;20663;-72
2023/08/18 07:58:25;;;;;;;15.77;11.17;;;28.40;99.90;;;;;;5045726;28;20244;-72
2023/08/18 08:00:51;;;;;;;10.63;9.47;;;28.50;99.90;;;;;;5047181;28;20180;-72
2023/08/18 08:03:17;;;;;;;9.37;7.73;;;29.00;99.90;;;;;;5054129;28;20159;-72
2023/08/18 08:05:42;;;;;;;9.50;8.60;;;29.50;99.90;;;;;;5053775;28;20929;-71
2023/08/18 08:08:08;;;;;;;13.03;11.63;;;29.70;99.90;;;;;;5054108;28;20179;-72
2023/08/18 08:10:33;;;;;;;13.00;11.23;;;29.70;99.90;;;;;;5054071;28;20195;-72
2023/08/18 08:12:59;;;;;;;10.93;8.73;;;29.50;99.90;;;;;;5053933;28;20527;-72
2023/08/18 08:15:24;;;;;;;9.60;8.10;;;29.70;99.90;;;;;;5053664;28;20159;-72
2023/08/18 08:17:51;;;;;;;8.13;7.27;;;30.00;99.90;;;;;;5037636;28;20231;-72
2023/08/18 08:20:17;;;;;;;12.83;11.03;;;30.50;99.90;;;;;;5034044;28;20222;-72
2023/08/18 08:22:47;;;;;;;7.10;6.50;;;31.00;99.90;;;;;;5033960;28;21099;-72
2023/08/18 08:25:13;;;;;;;10.90;9.90;;;31.20;99.90;;;;;;5033729;28;20776;-72
2023/08/18 08:27:39;;;;;;;9.43;8.50;;;31.70;99.90;;;;;;5038829;28;20524;-72
2023/08/18 08:30:07;;;;;;;14.27;9.53;;;32.60;99.90;;;;;;5050853;28;20209;-72
2023/08/18 08:32:33;;;;;;;11.07;9.97;;;33.80;97.80;;;;;;5033731;28;20191;-72
2023/08/18 08:34:59;;;;;;;12.40;11.10;;;34.80;92.00;;;;;;5053337;28;20402;-72
2023/08/18 08:37:25;;;;;;;13.20;11.93;;;36.20;81.20;;;;;;5048607;28;20171;-73
2023/08/18 08:39:50;;;;;;;10.70;9.80;;;36.80;72.00;;;;;;5052304;28;20301;-73
2023/08/18 08:42:16;;;;;;;8.03;7.43;;;36.80;66.00;;;;;;5053538;28;20512;-73
2023/08/18 08:44:42;;;;;;;10.93;9.90;;;37.60;68.70;;;;;;5052261;28;20257;-73
2023/08/18 08:47:08;;;;;;;10.10;9.20;;;37.40;60.40;;;;;;5047177;28;20171;-73
2023/08/18 08:49:35;;;;;;;13.23;12.13;;;37.20;61.10;;;;;;5053213;28;20531;-73
2023/08/18 08:52:10;;;;;;;9.27;8.40;;;37.60;59.00;;;;;;5053217;28;20429;-73
2023/08/18 08:54:39;;;;;;;12.37;11.20;;;38.20;60.70;;;;;;5053236;28;20396;-73
2023/08/18 08:57:06;;;;;;;10.47;9.37;;;39.20;56.90;;;;;;5053083;28;20409;-73
2023/08/18 08:59:33;;;;;;;10.13;9.33;;;39.30;54.80;;;;;;5045631;28;20422;-73
2023/08/18 09:01:59;;;;;;;12.43;11.40;;;39.70;55.30;;;;;;5053127;28;20433;-73
2023/08/18 09:04:24;;;;;;;14.10;12.80;;;39.70;53.80;;;;;;5053170;28;20405;-73
2023/08/18 09:06:50;;;;;;;12.63;11.53;;;39.50;52.60;;;;;;5052762;28;20433;-73
2023/08/18 09:09:18;;;;;;;12.63;11.53;;;39.80;54.10;;;;;;5052992;28;20194;-73
2023/08/18 09:11:47;;;;;;;15.47;13.77;;;40.60;52.30;;;;;;5052965;28;20183;-74
2023/08/18 09:14:17;;;;;;;12.50;11.47;;;41.10;49.20;;;;;;5053073;28;20817;-74
2023/08/18 09:16:44;;;;;;;16.53;14.10;;;42.20;48.20;;;;;;5052731;28;20478;-73
2023/08/18 09:19:13;;;;;;;18.83;17.33;;;42.50;46.80;;;;;;5052852;28;20405;-73
2023/08/18 09:21:39;;;;;;;12.77;11.57;;;43.10;45.50;;;;;;5052803;28;20417;-73
2023/08/18 09:24:05;;;;;;;16.97;15.53;;;43.40;45.40;;;;;;5052809;28;20404;-73
2023/08/18 09:26:31;;;;;;;13.13;12.03;;;43.80;43.40;;;;;;5046029;28;20190;-73
2023/08/18 09:28:57;;;;;;;17.30;15.70;;;42.80;43.80;;;;;;5048889;28;20541;-73
2023/08/18 09:31:22;;;;;;;15.00;13.60;;;41.80;44.30;;;;;;5044569;28;20461;-73
2023/08/18 09:33:50;;;;;;;20.97;18.10;;;41.90;45.50;;;;;;5049905;28;20167;-72
2023/08/18 09:36:15;;;;;;;17.73;15.60;;;42.00;45.10;;;;;;5048976;28;20225;-73
2023/08/18 09:38:42;;;;;;;16.50;14.90;;;42.30;44.50;;;;;;5052408;28;20409;-73
2023/08/18 09:41:12;;;;;;;15.93;14.33;;;41.90;43.90;;;;;;5052453;28;20186;-73
2023/08/18 09:43:39;;;;;;;14.33;13.00;;;42.40;44.80;;;;;;5052570;28;20488;-73
2023/08/18 09:46:06;;;;;;;17.80;16.30;;;43.20;43.90;;;;;;5052123;28;20387;-73
2023/08/18 09:48:38;;;;;;;12.53;11.37;;;44.00;42.30;;;;;;5049258;28;20924;-73
2023/08/18 09:51:09;;;;;;;13.50;12.30;;;45.10;42.80;;;;;;5044164;28;20452;-73
2023/08/18 09:53:36;;;;;;;14.33;13.13;;;46.40;41.10;;;;;;5052314;28;20376;-74
2023/08/18 09:56:11;;;;;;;19.30;17.40;;;47.60;39.60;;;;;;5052076;28;20368;-74
2023/08/18 09:59:01;;;;;;;12.87;11.60;;;47.70;36.50;;;;;;5052238;28;20380;-74
2023/08/18 10:01:30;;;;;;;13.00;11.90;;;48.10;37.80;;;;;;5052147;28;20449;-74
2023/08/18 10:03:58;;;;;;;13.47;12.27;;;48.80;37.20;;;;;;5050592;28;20391;-74
2023/08/18 10:06:25;;;;;;;11.07;10.17;;;49.50;36.00;;;;;;5046996;28;20451;-75
2023/08/18 10:08:53;;;;;;;12.43;11.43;;;50.60;35.80;;;;;;5052050;28;20435;-73
2023/08/18 10:11:20;;;;;;;13.73;12.53;;;51.10;34.00;;;;;;5045516;28;20461;-72
2023/08/18 10:13:46;;;;;;;9.87;9.07;;;50.70;31.60;;;;;;5052047;28;20486;-74
2023/08/18 10:16:12;;;;;;;11.67;10.77;;;50.20;32.80;;;;;;5051801;28;20662;-73
2023/08/18 10:18:38;;;;;;;12.90;11.63;;;49.70;32.80;;;;;;5052046;28;20459;-72
2023/08/18 10:21:04;;;;;;;14.40;13.23;;;50.00;33.10;;;;;;5051944;28;20262;-72
2023/08/18 10:23:31;;;;;;;10.37;9.60;;;50.80;32.10;;;;;;5051842;28;20491;-73
2023/08/18 10:25:57;;;;;;;9.80;8.90;;;50.50;32.50;;;;;;5051271;28;20175;-72
2023/08/18 10:28:27;;;;;;;7.20;6.60;;;51.20;33.10;;;;;;5047796;28;20805;-73
2023/08/18 10:31:04;;;;;;;8.67;8.07;;;52.00;33.00;;;;;;5048725;28;20395;-73
2023/08/18 10:33:43;;;;;;;8.17;7.57;;;53.20;32.10;;;;;;5051703;28;20416;-73
2023/08/18 10:36:09;;;;;;;10.20;9.27;;;54.20;31.90;;;;;;5051539;28;20372;-73
2023/08/18 10:38:36;;;;;;;8.07;7.40;;;54.50;29.50;;;;;;5051721;28;20412;-73
2023/08/18 10:41:03;;;;;;;9.00;8.30;;;55.20;30.30;;;;;;5051526;28;20380;-73
2023/08/18 10:43:28;;;;;;;8.33;7.53;;;55.60;29.70;;;;;;5051705;28;20405;-73
2023/08/18 10:46:00;;;;;;;8.37;7.77;;;56.00;28.90;;;;;;5051451;28;20833;-73
2023/08/18 10:48:32;;;;;;;7.97;7.47;;;56.40;28.40;;;;;;5051779;28;20247;-74
2023/08/18 10:50:59;;;;;;;7.20;6.80;;;56.60;28.70;;;;;;5051646;28;20882;-74
2023/08/18 10:53:25;;;;;;;8.50;7.90;;;57.00;29.00;;;;;;5049120;28;20401;-74
2023/08/18 10:55:53;;;;;;;12.90;11.57;;;57.10;27.70;;;;;;5047644;28;20436;-73
2023/08/18 10:58:22;;;;;;;7.20;6.70;;;55.20;26.60;;;;;;5046215;28;20643;-74
2023/08/18 11:00:49;;;;;;;8.43;7.83;;;54.30;28.50;;;;;;5051352;28;20406;-73
2023/08/18 11:03:15;;;;;;;8.33;7.63;;;52.90;28.50;;;;;;5054802;28;20397;-73
2023/08/18 11:05:41;;;;;;;9.83;8.90;;;53.30;29.70;;;;;;5045145;28;20421;-73
2023/08/18 11:08:12;;;;;;;9.10;8.40;;;52.70;28.30;;;;;;5054115;28;20194;-73
2023/08/18 11:10:40;;;;;;;7.50;6.83;;;52.10;28.80;;;;;;5047639;28;20252;-73
2023/08/18 11:13:06;;;;;;;8.70;8.10;;;52.40;29.50;;;;;;5052267;28;20410;-73
2023/08/18 11:15:31;;;;;;;6.63;6.10;;;51.80;28.60;;;;;;5046913;28;20749;-73
2023/08/18 11:17:57;;;;;;;8.97;8.33;;;52.90;30.60;;;;;;5051801;28;20409;-73
2023/08/18 11:20:23;;;;;;;7.10;6.60;;;53.70;29.00;;;;;;5055174;28;20175;-73
2023/08/18 11:22:53;;;;;;;6.87;6.47;;;54.60;29.20;;;;;;5054941;28;20275;-73
2023/08/18 11:25:22;;;;;;;7.07;6.53;;;55.40;28.90;;;;;;5054750;28;20194;-73
2023/08/18 11:27:48;;;;;;;7.07;6.67;;;55.30;28.00;;;;;;5050630;28;20527;-73
2023/08/18 11:30:15;;;;;;;7.20;6.70;;;55.60;28.10;;;;;;5044563;28;20541;-73
2023/08/18 11:32:41;;;;;;;6.40;6.00;;;56.30;28.20;;;;;;5046045;28;20437;-74
2023/08/18 11:35:08;;;;;;;7.43;6.93;;;57.20;28.80;;;;;;5054489;28;20421;-73
2023/08/18 11:37:47;;;;;;;7.10;6.70;;;57.90;27.60;;;;;;5054711;28;20416;-74
2023/08/18 11:40:15;;;;;;;6.40;6.10;;;58.40;27.40;;;;;;5054916;28;20439;-73
2023/08/18 11:42:42;;;;;;;7.40;6.90;;;59.00;27.10;;;;;;5054791;28;20433;-72
2023/08/18 11:45:15;;;;;;;8.70;8.20;;;59.10;26.20;;;;;;5054684;28;20478;-74
2023/08/18 11:47:41;;;;;;;7.10;6.63;;;58.50;25.70;;;;;;5049567;28;20465;-73
2023/08/18 11:50:07;;;;;;;6.93;6.53;;;57.40;25.50;;;;;;5054620;28;20475;-74
2023/08/18 11:52:47;;;;;;;7.20;6.70;;;57.00;26.30;;;;;;5054533;28;20417;-73
2023/08/18 11:55:13;;;;;;;6.30;5.70;;;56.80;26.40;;;;;;5054212;28;20174;-72
2023/08/18 11:57:41;;;;;;;7.03;6.63;;;56.90;27.00;;;;;;5054327;28;21012;-74
2023/08/18 12:00:13;;;;;;;7.20;6.50;;;57.40;27.30;;;;;;5054479;28;20424;-73
2023/08/18 12:02:46;;;;;;;7.33;6.93;;;57.90;26.70;;;;;;5054398;28;20448;-73
2023/08/18 12:05:22;;;;;;;6.63;6.23;;;57.70;26.10;;;;;;5054206;28;20401;-74
2023/08/18 12:07:49;;;;;;;7.27;6.77;;;57.50;25.90;;;;;;5054229;28;20420;-74
2023/08/18 12:10:14;;;;;;;6.30;5.90;;;56.90;26.40;;;;;;5054347;28;20449;-73
2023/08/18 12:12:40;;;;;;;7.70;7.20;;;57.00;26.80;;;;;;5054272;28;20427;-73
2023/08/18 12:15:06;;;;;;;6.87;6.40;;;56.90;26.20;;;;;;5053323;28;20196;-73
2023/08/18 12:17:32;;;;;;;9.83;7.23;;;56.40;26.90;;;;;;5054182;28;20257;-73
2023/08/18 12:19:57;;;;;;;7.20;6.70;;;56.60;27.20;;;;;;5054192;28;20478;-73
2023/08/18 12:22:23;;;;;;;6.97;6.47;;;56.30;26.60;;;;;;5054092;28;20269;-72
2023/08/18 12:24:48;;;;;;;7.60;7.10;;;55.60;26.60;;;;;;5054272;28;20252;-73
2023/08/18 12:27:14;;;;;;;6.50;6.10;;;54.30;26.90;;;;;;5049554;28;20202;-73
2023/08/18 12:29:39;;;;;;;6.77;6.30;;;53.20;27.50;;;;;;5052021;28;20199;-73
2023/08/18 12:32:05;;;;;;;7.43;6.93;;;52.50;27.80;;;;;;5046642;28;20245;-72
2023/08/18 12:34:30;;;;;;;7.97;7.37;;;51.30;28.10;;;;;;5052740;28;20202;-73
2023/08/18 12:36:58;;;;;;;6.60;6.17;;;51.60;29.20;;;;;;5045500;28;20198;-73
2023/08/18 12:39:24;;;;;;;6.90;6.43;;;51.20;28.90;;;;;;5054032;28;20174;-73
2023/08/18 12:41:49;;;;;;;7.00;6.40;;;51.20;29.10;;;;;;5053961;28;20503;-72
2023/08/18 12:44:15;;;;;;;9.30;8.70;;;50.80;29.00;;;;;;5053572;28;20215;-74
2023/08/18 12:46:41;;;;;;;6.80;6.30;;;51.20;29.60;;;;;;5053306;28;20225;-73
2023/08/18 12:49:06;;;;;;;7.60;7.00;;;51.50;29.40;;;;;;5047905;28;20294;-73
2023/08/18 12:51:32;;;;;;;7.10;6.63;;;51.10;29.10;;;;;;5045461;28;20183;-72